Ami, Japan

1:48 PM JST on April 25, 2017 (GMT +0900)
Reichenaustra├če | | Change Station

Elev 88 ft 36.01 °N, 140.16 °E | Updated 2 minutes ago

Mostly Cloudy
Mostly Cloudy
72.1 °F
Feels Like 77 °F
N
3.1
Wind Variable Wind from WSW
Gusts 6.8 mph

Today
High -- | Low -- °F
--% Chance of Precip.
Yesterday
High -- | Low -- °F
Precip. -- in
Pressure 30.24 in
Visibility 6.2 miles
Clouds Few 2500 ft
Scattered Clouds 25000 ft
Heat Index 77 °F
Dew Point 54 °F
Humidity 52%
Rainfall 0.00 in
Snow Depth Not available.
4:53 AM 6:21 PM
Waning Crescent, 2% visible
METAR RJAH 250400Z 18009KT 130V240 9999 FEW025 SCT250 20/06 Q1024
Pressure 30.24 in
Visibility 6.2 miles
Clouds Few 2500 ft
Scattered Clouds 25000 ft
Heat Index 77 °F
Dew Point 54 °F
Humidity 52%
Rainfall 0.00 in
Snow Depth Not available.
4:53 AM 6:21 PM
Waning Crescent, 2% visible
METAR RJAH 250400Z 18009KT 130V240 9999 FEW025 SCT250 20/06 Q1024

Get Severe Weather Alerts

Thanks for signing up!

Be on the lookout for a verification email in your inbox.

You'll start receiving the daily forecast at 8 AM.

×

10-Day Weather Forecast

No radar image for this location.
×

Almanac

Astronomy

Apr. 25, 2017 Rise Set
Actual Time
Civil Twilight
Nautical Twilight
Astronomical Twilight
Moon
Length of Visible Light
Length of Day
Tomorrow will be .
, % of the Moon is Illuminated

Today's Extremes

Country Highs Country Lows

Community

WunderPhotos

WunderBlog® & News

Nearby

Air Quality

  Air Quality AQ Index Pollutant
Not available.

Snow Depth

Station Depth Elevation

Earthquake Activity

City Distance Mag. Time & Date
Minimum magnitude displayed is 2.5.

Coastal Water Temperatures

Place Temperature

Stations

Nearby Weather Stations

Station Location Temp. Windchill Dew Point Humidity Wind Precip. Elev Updated Type